DW8209 Gubbio IT current weather conditions

sailwx.info

Wind from 324 at 3 knots gusting 10

Air temperature 16.1° C
Dewpoint 13.6° C

Last reported at 2014-Sep-03 06:55 UTC.
Time now 2014-Sep-03 07:29 UTC

Location: N 43°19' E 012°34'.
View on Google Maps.

See reports from other nearby stations

  
Tides and Currents Weather Stations Pressure Air Temp Water Temp Dewpoint Dewpoint Depression Visibility Wind Speed Wind Dir Waves Ship Positions
date/time (UTC)wind fromknots sea level pressurealtimeterstation pressurevisibilityair tempwater tempwave heightnotes
2014-Sep-03 06:55 324 3 gusting 10 16.1
2014-Sep-03 06:40 004 4 gusting 8 16.1
2014-Sep-03 06:25 019 6 gusting 13 15.6
2014-Sep-03 06:10 328 5 gusting 9 15.6
2014-Sep-03 05:55 326 3 gusting 7 16.1
2014-Sep-03 05:40 319 5 gusting 10 16.1
2014-Sep-03 05:25 006 4 gusting 10 16.1
2014-Sep-03 05:10 306 5 gusting 13 16.1
2014-Sep-03 04:55 342 5 gusting 8 16.1
2014-Sep-03 04:39 336 16.1
2014-Sep-03 04:24 018 2 gusting 7 15.6
2014-Sep-03 04:09 311 3 gusting 6 15.6
2014-Sep-03 03:54 354 1 gusting 7 15.6
2014-Sep-03 03:39 327 2 gusting 6 15.6
2014-Sep-03 03:24 025 4 gusting 7 15.6
2014-Sep-03 03:09 020 3 gusting 7 15.6
2014-Sep-03 02:54 304 6 gusting 12 15.6
2014-Sep-03 02:39 029 5 gusting 10 15.6
2014-Sep-03 02:24 025 4 gusting 7 15.6
2014-Sep-03 02:09 313 2 gusting 7 15.6
2014-Sep-03 01:54 328 0 gusting 2 15.6
2014-Sep-03 01:39 333 3 gusting 6 15.6
2014-Sep-03 01:24 313 4 gusting 8 15.6
2014-Sep-03 01:09 354 4 gusting 10 15.6
2014-Sep-03 00:54 326 3 gusting 9 15.6
2014-Sep-03 00:39 306 1 gusting 9 15.6
2014-Sep-03 00:24 007 4 gusting 11 15.6
2014-Sep-03 00:09 293 6 gusting 15 15.6
2014-Sep-02 23:54 352 5 gusting 13 15.6
2014-Sep-02 23:39 308 7 gusting 18 15.6
2014-Sep-02 23:24 331 7 gusting 14 15.6
2014-Sep-02 23:09 314 6 gusting 15 15.6
2014-Sep-02 22:54 028 5 gusting 12 15.6
2014-Sep-02 22:39 330 8 gusting 13 15.6
2014-Sep-02 22:24 293 5 gusting 11 15.6
2014-Sep-02 22:09 283 4 gusting 11 15.6
2014-Sep-02 21:54 026 8 gusting 13 15.6
2014-Sep-02 21:39 268 3 gusting 10 15.6
2014-Sep-02 21:24 298 3 gusting 10 15.6
2014-Sep-02 21:09 280 3 gusting 11 15.6
2014-Sep-02 20:54 326 4 gusting 10 15.0
2014-Sep-02 20:39 013 6 gusting 12 15.0
2014-Sep-02 20:24 333 6 gusting 11 15.0
2014-Sep-02 20:09 347 4 gusting 13 15.6
2014-Sep-02 19:54 315 5 gusting 13 15.6
2014-Sep-02 19:39 321 4 gusting 10 15.6
2014-Sep-02 19:24 324 3 gusting 9 15.6
2014-Sep-02 19:09 053 5 gusting 10 15.6
2014-Sep-02 18:54 349 3 gusting 9 15.0
2014-Sep-02 18:39 339 1 gusting 8 15.0
2014-Sep-02 18:24 331 6 gusting 11 15.6
2014-Sep-02 18:09 323 5 gusting 14 15.6
2014-Sep-02 17:54 332 7 gusting 19 15.6
2014-Sep-02 17:39 318 4 gusting 12 15.6
2014-Sep-02 17:24 342 5 gusting 9 15.6
2014-Sep-02 17:09 298 6 gusting 12 15.6
2014-Sep-02 16:53 302 4 gusting 6 15.6
2014-Sep-02 16:38 316 3 gusting 8 16.1
2014-Sep-02 16:23 293 5 gusting 9 16.1
2014-Sep-02 16:08 012 5 gusting 11 16.1
2014-Sep-02 15:53 281 2 gusting 5 16.1
2014-Sep-02 15:38 304 2 gusting 6 16.1
2014-Sep-02 15:23 291 2 gusting 6 16.1
2014-Sep-02 15:08 306 3 gusting 11 16.1
2014-Sep-02 14:53 294 2 gusting 6 16.1
2014-Sep-02 14:38 309 3 gusting 6 16.1
2014-Sep-02 14:23 284 3 gusting 8 16.1
2014-Sep-02 14:08 323 1 gusting 14 16.1
2014-Sep-02 13:53 277 4 gusting 10 16.1
2014-Sep-02 13:38 299 5 gusting 8 16.1
2014-Sep-02 13:23 311 4 gusting 6 16.1
2014-Sep-02 13:08 249 3 gusting 6 16.1
2014-Sep-02 12:53 065 0 gusting 3 16.7
2014-Sep-02 12:38 045 3 gusting 9 16.7
2014-Sep-02 12:23 032 5 gusting 9 17.2
2014-Sep-02 12:08 336 5 gusting 9 17.2
2014-Sep-02 11:53 320 7 gusting 12 17.2
2014-Sep-02 11:38 322 6 gusting 11 17.2
2014-Sep-02 11:23 311 6 gusting 14 17.2
2014-Sep-02 11:08 335 5 gusting 12 17.8
2014-Sep-02 10:53 342 4 gusting 7 17.8
2014-Sep-02 10:38 045 2 gusting 8 17.2
2014-Sep-02 10:23 013 4 gusting 6 17.2
2014-Sep-02 10:08 347 4 gusting 8 17.2
2014-Sep-02 09:53 355 7 gusting 13 17.2
2014-Sep-02 09:38 333 5 gusting 10 17.2
2014-Sep-02 09:23 354 5 gusting 8 17.2
2014-Sep-02 09:07 298 5 gusting 13 17.2
2014-Sep-02 08:52 336 6 gusting 14 17.8
2014-Sep-02 08:37 309 6 gusting 11 17.8
2014-Sep-02 08:22 342 5 gusting 13 17.2
2014-Sep-02 08:07 003 4 gusting 7 17.2
2014-Sep-02 07:52 339 4 gusting 8 17.2
2014-Sep-02 07:37 001 5 gusting 8 17.2
2014-Sep-02 07:22 032 5 gusting 9 16.7
2014-Sep-02 07:07 345 6 gusting 13 17.2
2014-Sep-02 06:52 311 6 gusting 11 17.2
2014-Sep-02 06:37 020 6 gusting 13 17.2
2014-Sep-02 06:22 338 6 gusting 13 16.7
2014-Sep-02 06:07 331 7 gusting 13 16.7
2014-Sep-02 05:52 012 9 gusting 16 16.7
2014-Sep-02 05:37 323 4 gusting 18 16.7
2014-Sep-02 05:22 005 5 gusting 14 16.7
2014-Sep-02 05:07 350 6 gusting 13 16.7
2014-Sep-02 04:52 333 7 gusting 16 16.7
2014-Sep-02 04:37 325 9 gusting 19 16.7
2014-Sep-02 04:22 353 5 gusting 10 16.7
2014-Sep-02 04:07 009 8 gusting 15 16.7
2014-Sep-02 03:52 014 6 gusting 13 16.7
2014-Sep-02 03:37 311 3 gusting 9 16.7
2014-Sep-02 03:22 333 6 gusting 16 16.7
2014-Sep-02 03:07 316 6 gusting 13 16.7
2014-Sep-02 02:52 329 8 gusting 13 16.7
2014-Sep-02 02:37 321 6 gusting 14 16.7
2014-Sep-02 02:22 331 8 gusting 14 16.7
2014-Sep-02 02:07 318 1 gusting 7 16.7
2014-Sep-02 01:52 336 6 gusting 9 16.7
2014-Sep-02 01:37 349 5 gusting 11 16.7
2014-Sep-02 01:22 311 6 gusting 13 17.2
2014-Sep-02 01:07 350 4 gusting 9 17.2
2014-Sep-02 00:52 025 4 gusting 10 17.2
2014-Sep-02 00:37 293 4 gusting 11 16.7
2014-Sep-02 00:22 027 2 gusting 9 17.2
2014-Sep-02 00:07 360 4 gusting 14 17.2
2014-Sep-01 23:52 330 4 gusting 8 17.2
2014-Sep-01 23:37 335 4 gusting 10 17.2
2014-Sep-01 23:22 300 3 gusting 10 17.2
2014-Sep-01 23:07 354 5 gusting 9 16.7
2014-Sep-01 22:52 329 5 gusting 13 16.7
2014-Sep-01 22:37 340 6 gusting 11 16.1
2014-Sep-01 22:22 345 6 gusting 13 16.1
2014-Sep-01 22:07 015 7 gusting 13 16.1
2014-Sep-01 21:52 337 9 gusting 13 16.1
2014-Sep-01 21:37 012 7 gusting 17 16.1
2014-Sep-01 21:22 021 8 gusting 15 16.1
2014-Sep-01 21:07 302 6 gusting 13 16.1
2014-Sep-01 20:52 323 13 gusting 19 16.1
2014-Sep-01 20:36 347 10 gusting 18 15.6
2014-Sep-01 20:21 336 5 gusting 12 15.6
2014-Sep-01 20:06 321 7 gusting 15 15.6
2014-Sep-01 19:51 315 6 gusting 15 15.6
2014-Sep-01 19:36 333 7 gusting 12 15.0
2014-Sep-01 19:21 005 8 gusting 14 15.6
2014-Sep-01 19:06 004 5 gusting 14 15.0
2014-Sep-01 18:51 339 9 gusting 19 15.0
2014-Sep-01 18:36 328 9 gusting 25 15.6
2014-Sep-01 18:21 311 6 gusting 18 15.0
2014-Sep-01 18:06 338 7 gusting 17 15.0
2014-Sep-01 17:51 352 7 gusting 15 15.0
2014-Sep-01 17:36 344 6 gusting 13 15.0
2014-Sep-01 17:21 013 9 gusting 18 15.0
2014-Sep-01 17:06 005 11 gusting 22 15.0
2014-Sep-01 16:51 353 10 gusting 18 15.0
2014-Sep-01 16:36 355 8 gusting 16 15.0
2014-Sep-01 16:21 307 5 gusting 10 15.0
2014-Sep-01 16:06 325 8 gusting 13 15.0
2014-Sep-01 15:51 342 4 gusting 12 15.0
2014-Sep-01 15:36 333 6 gusting 17 15.0
2014-Sep-01 15:21 269 2 gusting 11 15.0
2014-Sep-01 15:06 319 4 gusting 8 15.0
2014-Sep-01 14:51 326 5 gusting 11 14.4
2014-Sep-01 14:36 321 6 gusting 14 14.4
2014-Sep-01 14:21 291 5 gusting 11 14.4
2014-Sep-01 14:06 287 8 gusting 13 14.4
2014-Sep-01 13:51 281 6 gusting 13 13.9
2014-Sep-01 13:36 284 6 gusting 14 13.3
2014-Sep-01 13:21 255 9 gusting 17 13.3
2014-Sep-01 13:06 288 6 gusting 11 13.9
2014-Sep-01 12:51 307 7 gusting 13 13.9
2014-Sep-01 12:36 291 7 gusting 13 14.4
2014-Sep-01 12:21 335 8 gusting 14 14.4
2014-Sep-01 12:06 309 8 gusting 14 14.4
2014-Sep-01 11:51 297 11 gusting 20 13.9
2014-Sep-01 11:35 326 6 gusting 13 13.9
2014-Sep-01 11:20 338 9 gusting 19 13.9
2014-Sep-01 11:05 304 8 gusting 19 13.3
2014-Sep-01 10:50 314 9 gusting 17 12.8
2014-Sep-01 10:35 303 4 gusting 9 13.3
2014-Sep-01 10:20 298 6 gusting 11 13.3
2014-Sep-01 10:05 313 2 gusting 6 13.3
2014-Sep-01 09:50 290 3 gusting 5 13.9
2014-Sep-01 09:35 295 1 gusting 11 13.3
2014-Sep-01 09:20 284 13.3
2014-Sep-01 09:05 259 0 gusting 3 13.3
2014-Sep-01 08:50 277 1 gusting 5 12.8
2014-Sep-01 08:35 309 2 gusting 5 12.8
2014-Sep-01 08:20 242 1 gusting 3 12.2
2014-Sep-01 08:05 233 0 gusting 1 12.2
2014-Sep-01 07:50 269 4 gusting 5 11.7
2014-Sep-01 07:35 159 0 gusting 3 11.7
2014-Sep-01 07:20 097 6 gusting 9 12.2
2014-Sep-01 07:05 090 4 gusting 6 12.2